首页
METAR-TAF:

METAR-TAF

机场 :

波爾托羅日機場

波爾托羅, 斯洛文尼亚

纬度: 45-31N, 经度: 013-34E, 海拔: 95米

当前天气观测

该预报发布于14分钟前的21:30 UTC
风速11节,风向南转西南,在南转南东西转西南之间变化
温度 11°C
湿度 62%
气压 1003 hPa
能见度10公里或以上

METAR: LJPZ 272130Z AUTO 20011KT 160V240 9999 FEW033/// SCT046/// BKN060/// 11/04 Q1003

时间: 22:44 (21:44 UTC)

预报

该预报发布于1小时和44分钟前的20:00 UTC
预报有效从27日的 21点(UTC)到 28日的 06点(UTC)
风速5节,风向南转南东
能见度10公里或以上
少量云层高于6500英尺
多云层高于10000英尺
短暂存在
从 27日的 21点(UTC)到 27日的 24点(UTC)
风速12节,风向
短暂存在
从 27日的 21点(UTC)到 28日的 01点(UTC)
散云层高于4000英尺
多云层高于7000英尺
几率 30% :
短暂存在
从 27日的 21点(UTC)到 28日的 01点(UTC)
多云层高于3300英尺
多云层高于7000英尺
小雨
成为
从 28日的 00点(UTC)到 28日的 03点(UTC)
风速10节,风向北转西北
能见度10公里或以上
1500米以下无云,无积雨云

TAF: LJPZ 272000Z 2721/2806 15005KT 9999 FEW065 BKN100 TEMPO 2721/2724 19012KT TEMPO 2721/2801 SCT040 BKN070 PROB30 TEMPO 2721/2801 -RA BKN033 BKN070 BECMG 2800/2803 33010KT CAVOK

超过4000个机场的气象观测和天气预报(METAR&TAF报告)。

可查询的气象台以黄色和红色小点在地图上表示。

将鼠标移到小点上方,可查看气象台名称。

然后点击查看天气观测和预报。

如需切换地图:点击带黑十字的绿色按钮放大地图;点击带横线的绿色按钮缩小地图;或者点击绿色箭头查看邻近地区的地图。


METAR-TAF: